Time;durP1;ratioP1;P1;durP2;ratioP2;P2;SDS_P1;SDS_P2;PMS_P1;PMS_P2;Temp;Humidity;BMP_temperature;BMP_pressure;BME280_temperature;BME280_humidity;BME280_pressure;Samples;Min_cycle;Max_cycle;Signal;HPM_P1;HPM_P2
2022/05/18 00:04:43;;;;;;;3.87;1.45;;;;;;;;;;4314188;80;28518;-80
2022/05/18 00:10:45;;;;;;;3.08;1.10;;;;;;;;;;4298417;80;28494;-80
2022/05/18 00:16:46;;;;;;;4.45;1.10;;;;;;;;;;4325018;80;28578;-79
2022/05/18 00:22:49;;;;;;;6.65;1.20;;;;;;;;;;4354295;80;28530;-80
2022/05/18 00:28:50;;;;;;;5.45;1.20;;;;;;;;;;4322238;80;28629;-79
2022/05/18 00:34:51;;;;;;;2.05;0.98;;;;;;;;;;4333194;80;28499;-80
2022/05/18 00:40:52;;;;;;;3.37;1.17;;;;;;;;;;4333858;80;28439;-79
2022/05/18 00:46:53;;;;;;;2.22;1.00;;;;;;;;;;4323764;80;28519;-80
2022/05/18 00:53:10;;;;;;;3.60;1.27;;;;;;;;;;4327223;80;28600;-79
2022/05/18 00:59:13;;;;;;;3.40;1.00;;;;;;;;;;4331573;80;28529;-79
2022/05/18 01:05:16;;;;;;;3.72;0.90;;;;;;;;;;4320346;80;28529;-77
2022/05/18 01:11:18;;;;;;;4.47;1.20;;;;;;;;;;4282594;80;28466;-77
2022/05/18 01:17:23;;;;;;;5.62;1.20;;;;;;;;;;4328282;80;28576;-78
2022/05/18 01:23:26;;;;;;;4.77;1.17;;;;;;;;;;4298584;80;28530;-78
2022/05/18 01:29:28;;;;;;;3.12;1.00;;;;;;;;;;4337184;80;28498;-78
2022/05/18 01:35:30;;;;;;;3.58;1.20;;;;;;;;;;4311666;80;28540;-78
2022/05/18 01:41:33;;;;;;;2.15;0.80;;;;;;;;;;4264664;80;28605;-78
2022/05/18 01:47:35;;;;;;;4.05;0.90;;;;;;;;;;4285484;80;28561;-78
2022/05/18 01:53:36;;;;;;;3.20;0.80;;;;;;;;;;4296155;80;28667;-79
2022/05/18 01:59:37;;;;;;;2.47;0.98;;;;;;;;;;4308092;80;28512;-79
2022/05/18 02:05:38;;;;;;;2.77;0.85;;;;;;;;;;4326319;80;28477;-80
2022/05/18 02:11:39;;;;;;;3.40;0.90;;;;;;;;;;4319200;80;28565;-79
2022/05/18 02:17:41;;;;;;;3.33;1.12;;;;;;;;;;4335335;80;28506;-79
2022/05/18 02:23:42;;;;;;;2.72;0.82;;;;;;;;;;4325148;80;28564;-79
2022/05/18 02:29:43;;;;;;;2.80;1.00;;;;;;;;;;4322681;80;28534;-78
2022/05/18 02:35:44;;;;;;;3.52;0.80;;;;;;;;;;4332597;80;28509;-78
2022/05/18 02:41:45;;;;;;;4.20;1.00;;;;;;;;;;4284450;80;28491;-79
2022/05/18 02:47:46;;;;;;;3.70;1.02;;;;;;;;;;4302259;80;28560;-78
2022/05/18 02:53:47;;;;;;;4.83;1.05;;;;;;;;;;4296352;80;28501;-79
2022/05/18 02:59:49;;;;;;;3.80;1.12;;;;;;;;;;4317749;80;28510;-78
2022/05/18 03:05:50;;;;;;;2.45;1.00;;;;;;;;;;4307833;80;28561;-79
2022/05/18 03:11:50;;;;;;;4.25;1.22;;;;;;;;;;4305355;80;28510;-80
2022/05/18 03:17:53;;;;;;;2.83;1.20;;;;;;;;;;4319434;80;28513;-79
2022/05/18 03:23:54;;;;;;;2.58;1.15;;;;;;;;;;4316434;80;28505;-78
2022/05/18 03:29:55;;;;;;;4.08;1.10;;;;;;;;;;4315730;80;28575;-78
2022/05/18 03:35:56;;;;;;;4.22;1.20;;;;;;;;;;4307985;80;28498;-78
2022/05/18 03:41:57;;;;;;;4.95;1.70;;;;;;;;;;4309859;80;28533;-77
2022/05/18 03:47:58;;;;;;;2.90;1.20;;;;;;;;;;4318974;80;28489;-78
2022/05/18 03:53:58;;;;;;;2.62;1.00;;;;;;;;;;4315351;80;28522;-78
2022/05/18 03:59:59;;;;;;;3.50;0.95;;;;;;;;;;4318374;80;28585;-77
2022/05/18 04:06:00;;;;;;;3.58;1.17;;;;;;;;;;4303982;80;28514;-80
2022/05/18 04:12:01;;;;;;;2.92;1.15;;;;;;;;;;4308922;80;28582;-79
2022/05/18 04:18:03;;;;;;;3.02;1.00;;;;;;;;;;4310580;80;28456;-80
2022/05/18 04:24:04;;;;;;;3.92;1.20;;;;;;;;;;4315490;80;28490;-79
2022/05/18 04:30:05;;;;;;;3.80;1.22;;;;;;;;;;4316273;80;28512;-77
2022/05/18 04:36:06;;;;;;;7.28;1.20;;;;;;;;;;4324916;80;28535;-79
2022/05/18 04:42:10;;;;;;;3.83;1.05;;;;;;;;;;4310650;80;28476;-80
2022/05/18 04:48:15;;;;;;;4.47;1.60;;;;;;;;;;4342603;80;28577;-81
2022/05/18 04:54:15;;;;;;;4.83;1.42;;;;;;;;;;4328506;80;28600;-79
2022/05/18 05:00:16;;;;;;;3.08;1.37;;;;;;;;;;4325886;80;28545;-78
2022/05/18 05:06:17;;;;;;;6.42;1.20;;;;;;;;;;4317768;80;28546;-80
2022/05/18 05:12:18;;;;;;;5.10;1.12;;;;;;;;;;4317490;80;28508;-80
2022/05/18 05:18:19;;;;;;;5.47;1.70;;;;;;;;;;4322447;81;28533;-79
2022/05/18 05:24:20;;;;;;;6.35;1.90;;;;;;;;;;4347217;80;28559;-79
2022/05/18 05:30:21;;;;;;;6.33;2.12;;;;;;;;;;4329536;80;28534;-80
2022/05/18 05:36:22;;;;;;;4.70;2.33;;;;;;;;;;4329462;80;28615;-79
2022/05/18 05:42:23;;;;;;;10.88;2.37;;;;;;;;;;4363177;80;28506;-79
2022/05/18 05:48:25;;;;;;;7.05;1.95;;;;;;;;;;4322093;80;28549;-80
2022/05/18 05:54:30;;;;;;;8.43;1.72;;;;;;;;;;4322353;80;28560;-78
2022/05/18 06:00:29;;;;;;;9.70;2.30;;;;;;;;;;4319520;80;28550;-80
2022/05/18 06:06:30;;;;;;;5.10;2.17;;;;;;;;;;4373067;80;28494;-81
2022/05/18 06:12:30;;;;;;;5.17;1.60;;;;;;;;;;4340250;80;28975;-80
2022/05/18 06:18:31;;;;;;;5.65;1.62;;;;;;;;;;4326563;80;28483;-81
2022/05/18 06:24:32;;;;;;;6.72;1.60;;;;;;;;;;4338349;80;28525;-78
2022/05/18 06:30:33;;;;;;;5.40;1.70;;;;;;;;;;4321082;80;28532;-78
2022/05/18 06:36:35;;;;;;;7.00;1.72;;;;;;;;;;4313422;80;28506;-77
2022/05/18 06:42:36;;;;;;;3.05;1.12;;;;;;;;;;4318584;80;28526;-80
2022/05/18 06:48:40;;;;;;;4.55;1.42;;;;;;;;;;4295516;81;28479;-77
2022/05/18 06:54:40;;;;;;;3.47;1.55;;;;;;;;;;4321663;80;28575;-78
2022/05/18 07:00:41;;;;;;;5.97;1.37;;;;;;;;;;4301764;80;28518;-78
2022/05/18 07:06:43;;;;;;;8.60;1.85;;;;;;;;;;4313162;80;28477;-77
2022/05/18 07:12:44;;;;;;;3.25;1.42;;;;;;;;;;4342042;81;28572;-78
2022/05/18 07:18:47;;;;;;;3.52;1.20;;;;;;;;;;4316327;80;28641;-75
2022/05/18 07:24:49;;;;;;;3.22;1.27;;;;;;;;;;4320432;80;28479;-75
2022/05/18 07:30:51;;;;;;;3.85;1.40;;;;;;;;;;4323545;80;28556;-77
2022/05/18 07:36:53;;;;;;;2.77;1.22;;;;;;;;;;4334609;80;28485;-76
2022/05/18 07:42:56;;;;;;;3.87;1.22;;;;;;;;;;4336150;80;28529;-76
2022/05/18 07:48:57;;;;;;;3.62;1.40;;;;;;;;;;4291737;80;28494;-76
2022/05/18 07:54:58;;;;;;;5.47;1.40;;;;;;;;;;4321273;80;28518;-76
2022/05/18 08:00:59;;;;;;;4.00;1.50;;;;;;;;;;4322814;80;28529;-78
2022/05/18 08:06:59;;;;;;;7.12;1.62;;;;;;;;;;4355627;80;28513;-79
2022/05/18 08:19:20;;;;;;;4.53;1.75;;;;;;;;;;4322815;81;28504;-80
2022/05/18 08:25:21;;;;;;;8.43;2.77;;;;;;;;;;4293713;82;28465;-80
2022/05/18 08:31:23;;;;;;;7.33;1.77;;;;;;;;;;4341708;80;28522;-82
2022/05/18 08:37:24;;;;;;;4.72;1.70;;;;;;;;;;4342876;80;28524;-81
2022/05/18 08:43:30;;;;;;;5.53;1.92;;;;;;;;;;4327107;80;28577;-82
2022/05/18 08:49:39;;;;;;;4.00;1.83;;;;;;;;;;4341055;80;28540;-79
2022/05/18 08:56:01;;;;;;;6.45;1.30;;;;;;;;;;4323543;80;28465;-79
2022/05/18 09:02:03;;;;;;;3.27;2.00;;;;;;;;;;4320270;80;28508;-79
2022/05/18 09:08:10;;;;;;;6.55;1.57;;;;;;;;;;4347663;80;28480;-77
2022/05/18 09:14:13;;;;;;;6.42;1.65;;;;;;;;;;4347059;80;28517;-80
2022/05/18 09:20:16;;;;;;;6.95;1.82;;;;;;;;;;4349820;80;28508;-79
2022/05/18 09:26:22;;;;;;;3.35;1.42;;;;;;;;;;4322393;80;28506;-84
2022/05/18 09:32:43;;;;;;;5.33;1.75;;;;;;;;;;4342987;80;28508;-81
2022/05/18 09:39:04;;;;;;;7.00;1.45;;;;;;;;;;4323846;80;28529;-82
2022/05/18 09:45:11;;;;;;;10.18;1.60;;;;;;;;;;4329062;80;28552;-78
2022/05/18 09:51:12;;;;;;;;;;;;;;;;;;4345528;80;28439;-79
2022/05/18 09:57:17;;;;;;;3.08;0.90;;;;;;;;;;4324882;80;20244;-76
2022/05/18 10:09:41;;;;;;;3.33;1.00;;;;;;;;;;4338093;80;28507;-78
2022/05/18 10:15:45;;;;;;;3.95;0.80;;;;;;;;;;4345163;80;28525;-81
2022/05/18 10:21:55;;;;;;;4.87;0.72;;;;;;;;;;4340738;80;28500;-80
2022/05/18 10:27:56;;;;;;;1.42;0.70;;;;;;;;;;4319503;80;28537;-80
2022/05/18 10:34:16;;;;;;;2.70;0.90;;;;;;;;;;4340300;80;28467;-78
2022/05/18 10:40:23;;;;;;;1.80;0.78;;;;;;;;;;4329477;80;28577;-79
2022/05/18 10:46:23;;;;;;;;;;;;;;;;;;4337445;80;28430;-81
2022/05/18 10:52:33;;;;;;;1.62;0.68;;;;;;;;;;4356073;80;20199;-77
2022/05/18 10:58:35;;;;;;;2.35;0.70;;;;;;;;;;4304863;80;28554;-77
2022/05/18 11:04:50;;;;;;;1.25;0.45;;;;;;;;;;4319897;80;28496;-76
2022/05/18 11:17:58;;;;;;;3.50;0.60;;;;;;;;;;4316556;80;28579;-79
2022/05/18 11:24:16;;;;;;;3.22;0.65;;;;;;;;;;4311554;80;28525;-78
2022/05/18 11:30:22;;;;;;;3.58;0.80;;;;;;;;;;4347874;80;28542;-75
2022/05/18 11:36:25;;;;;;;5.42;2.65;;;;;;;;;;4339590;80;28482;-78
2022/05/18 11:49:46;;;;;;;1.57;0.70;;;;;;;;;;4348615;80;28486;-78
2022/05/18 11:56:23;;;;;;;1.50;0.60;;;;;;;;;;4271736;80;28512;-76
2022/05/18 12:09:38;;;;;;;4.47;0.80;;;;;;;;;;4272934;80;28513;-79
2022/05/18 12:15:44;;;;;;;3.25;0.65;;;;;;;;;;4321124;80;28541;-78
2022/05/18 12:21:47;;;;;;;2.35;0.55;;;;;;;;;;4313525;80;28485;-79
2022/05/18 12:27:48;;;;;;;2.47;0.60;;;;;;;;;;4331978;80;28540;-79
2022/05/18 12:34:06;;;;;;;6.45;2.60;;;;;;;;;;4333959;80;28540;-79
2022/05/18 12:40:27;;;;;;;1.02;0.50;;;;;;;;;;4319859;80;28505;-79
2022/05/18 12:46:40;;;;;;;0.93;0.57;;;;;;;;;;4328712;80;28568;-78
2022/05/18 12:59:57;;;;;;;3.87;0.70;;;;;;;;;;4338949;80;28530;-79
2022/05/18 13:06:05;;;;;;;1.77;0.57;;;;;;;;;;4340362;81;28500;-79
2022/05/18 13:12:27;;;;;;;2.75;0.60;;;;;;;;;;4343507;80;28524;-78
2022/05/18 13:18:33;;;;;;;2.52;0.53;;;;;;;;;;4339544;80;28481;-77
2022/05/18 13:24:48;;;;;;;1.52;0.55;;;;;;;;;;4328480;80;28518;-78
2022/05/18 13:30:58;;;;;;;1.98;0.68;;;;;;;;;;4337830;80;28541;-80
2022/05/18 13:36:59;;;;;;;1.72;0.72;;;;;;;;;;4321779;80;28504;-78
2022/05/18 13:43:06;;;;;;;3.98;0.70;;;;;;;;;;4294237;81;28505;-79
2022/05/18 13:49:27;;;;;;;3.22;0.60;;;;;;;;;;4288227;81;28558;-79
2022/05/18 13:55:37;;;;;;;3.80;0.70;;;;;;;;;;4318451;81;28592;-81
2022/05/18 14:01:46;;;;;;;1.62;0.70;;;;;;;;;;4309321;81;28543;-79
2022/05/18 14:07:49;;;;;;;3.47;0.53;;;;;;;;;;4360590;81;28556;-77
2022/05/18 14:13:52;;;;;;;2.75;0.50;;;;;;;;;;4307374;81;28554;-79
2022/05/18 14:19:55;;;;;;;2.30;0.50;;;;;;;;;;4265497;81;28592;-79
2022/05/18 14:26:02;;;;;;;5.03;0.62;;;;;;;;;;4310067;82;28505;-80
2022/05/18 14:32:09;;;;;;;1.37;0.62;;;;;;;;;;4278020;82;28550;-79
2022/05/18 14:38:12;;;;;;;0.90;0.62;;;;;;;;;;4303647;81;28549;-82
2022/05/18 14:44:27;;;;;;;1.22;0.70;;;;;;;;;;4335480;80;28584;-78
2022/05/18 14:50:31;;;;;;;2.25;0.70;;;;;;;;;;4257593;81;28550;-77
2022/05/18 14:56:40;;;;;;;1.32;0.60;;;;;;;;;;4301008;81;28475;-80
2022/05/18 15:02:43;;;;;;;4.20;0.62;;;;;;;;;;4294307;81;28560;-77
2022/05/18 15:08:46;;;;;;;3.72;0.50;;;;;;;;;;4272746;82;28576;-79
2022/05/18 15:15:01;;;;;;;3.33;0.60;;;;;;;;;;4371645;80;28536;-80
2022/05/18 15:21:21;;;;;;;1.22;0.40;;;;;;;;;;4352509;80;28533;-73
2022/05/18 15:27:27;;;;;;;2.33;0.50;;;;;;;;;;4308530;81;28542;-75
2022/05/18 15:33:36;;;;;;;2.10;0.70;;;;;;;;;;4307270;80;28568;-75
2022/05/18 15:39:39;;;;;;;2.50;0.60;;;;;;;;;;4362544;80;28492;-74
2022/05/18 15:45:44;;;;;;;2.87;0.40;;;;;;;;;;4319838;80;28551;-78
2022/05/18 15:52:04;;;;;;;2.30;0.82;;;;;;;;;;4335147;80;28501;-78
2022/05/18 15:57:54;;;;;;;1.40;0.50;;;;;;;;;;4297714;80;28502;-78
2022/05/18 16:03:56;;;;;;;3.47;1.02;;;;;;;;;;4320939;80;28542;-74
2022/05/18 16:09:58;;;;;;;2.55;0.50;;;;;;;;;;4279987;80;28532;-73
2022/05/18 16:15:59;;;;;;;1.65;0.53;;;;;;;;;;4341872;80;28518;-73
2022/05/18 16:22:00;;;;;;;5.80;0.50;;;;;;;;;;4298764;80;28522;-73
2022/05/18 16:28:02;;;;;;;3.75;0.57;;;;;;;;;;4273414;80;28545;-73
2022/05/18 16:34:03;;;;;;;3.75;0.60;;;;;;;;;;4330357;80;28544;-73
2022/05/18 16:40:11;;;;;;;3.22;0.70;;;;;;;;;;4406538;78;28513;-85
2022/05/18 16:46:17;;;;;;;3.62;0.50;;;;;;;;;;4349083;80;28466;-84
2022/05/18 16:52:18;;;;;;;2.00;0.75;;;;;;;;;;4302804;81;28482;-78
2022/05/18 16:58:24;;;;;;;0.82;0.50;;;;;;;;;;4315724;80;28498;-77
2022/05/18 17:04:26;;;;;;;1.67;0.50;;;;;;;;;;4312422;80;28481;-76
2022/05/18 17:10:28;;;;;;;3.67;0.82;;;;;;;;;;4298766;80;28559;-76
2022/05/18 17:16:30;;;;;;;2.55;0.72;;;;;;;;;;4321086;80;28556;-76
2022/05/18 17:22:30;;;;;;;13.55;8.03;;;;;;;;;;4318571;80;28528;-76
2022/05/18 17:28:36;;;;;;;4.58;1.00;;;;;;;;;;4241770;80;28463;-76
2022/05/18 17:34:39;;;;;;;3.08;1.07;;;;;;;;;;4330672;79;28520;-76
2022/05/18 17:40:40;;;;;;;2.75;0.90;;;;;;;;;;4345243;79;28505;-77
2022/05/18 17:46:41;;;;;;;8.63;0.90;;;;;;;;;;4290041;80;28542;-79
2022/05/18 17:52:42;;;;;;;3.42;0.75;;;;;;;;;;4347576;79;28481;-74
2022/05/18 17:58:44;;;;;;;4.60;0.62;;;;;;;;;;4366468;79;28529;-81
2022/05/18 18:04:45;;;;;;;7.67;0.90;;;;;;;;;;4404389;79;28493;-80
2022/05/18 18:10:57;;;;;;;3.12;0.70;;;;;;;;;;4374091;79;28541;-73
2022/05/18 18:17:01;;;;;;;6.70;0.60;;;;;;;;;;4312604;80;28526;-74
2022/05/18 18:23:03;;;;;;;8.83;1.67;;;;;;;;;;4329584;79;28465;-73
2022/05/18 18:29:04;;;;;;;3.05;0.90;;;;;;;;;;4310161;80;28501;-75
2022/05/18 18:35:05;;;;;;;2.10;0.82;;;;;;;;;;4269456;80;28518;-79
2022/05/18 18:41:06;;;;;;;2.27;0.70;;;;;;;;;;4289233;80;28557;-71
2022/05/18 18:47:08;;;;;;;3.08;1.10;;;;;;;;;;4381326;79;28507;-73
2022/05/18 18:59:31;;;;;;;10.50;1.20;;;;;;;;;;4425176;79;28579;-74
2022/05/18 19:05:33;;;;;;;12.28;1.70;;;;;;;;;;4424320;79;28489;-73
2022/05/18 19:11:37;;;;;;;10.82;2.00;;;;;;;;;;4432421;79;28503;-75
2022/05/18 19:17:40;;;;;;;6.40;1.55;;;;;;;;;;4403370;79;28547;-75
2022/05/18 19:23:42;;;;;;;5.55;1.20;;;;;;;;;;4423896;79;28509;-81
2022/05/18 19:29:47;;;;;;;6.10;1.72;;;;;;;;;;4433193;79;28466;-82
2022/05/18 19:35:46;;;;;;;4.53;1.77;;;;;;;;;;4405276;79;28538;-82
2022/05/18 19:41:53;;;;;;;4.15;1.45;;;;;;;;;;4359299;80;28466;-82
2022/05/18 19:47:56;;;;;;;5.22;1.57;;;;;;;;;;4368589;80;28498;-78
2022/05/18 19:53:57;;;;;;;7.92;2.98;;;;;;;;;;4372480;80;28487;-78
2022/05/18 19:59:59;;;;;;;6.05;2.90;;;;;;;;;;4375670;80;28522;-80
2022/05/18 20:06:02;;;;;;;8.05;3.45;;;;;;;;;;4367127;80;28512;-80
2022/05/18 20:12:08;;;;;;;10.30;3.40;;;;;;;;;;4366785;79;28595;-78
2022/05/18 20:18:09;;;;;;;;;;;;;;;;;;4406432;79;28578;-81
2022/05/18 20:24:13;;;;;;;7.83;2.75;;;;;;;;;;4313971;80;20336;-79
2022/05/18 20:30:14;;;;;;;8.68;3.45;;;;;;;;;;4391974;79;28518;-77
2022/05/18 20:36:16;;;;;;;7.08;3.75;;;;;;;;;;4399385;79;28510;-78
2022/05/18 20:42:19;;;;;;;9.13;4.15;;;;;;;;;;4314196;80;28494;-77
2022/05/18 20:48:22;;;;;;;12.50;5.03;;;;;;;;;;4298395;80;28546;-76
2022/05/18 20:54:29;;;;;;;12.15;5.70;;;;;;;;;;4316882;80;28540;-78
2022/05/18 21:00:30;;;;;;;11.63;5.55;;;;;;;;;;4320622;80;28558;-78
2022/05/18 21:06:31;;;;;;;11.25;5.70;;;;;;;;;;4318366;80;28539;-78
2022/05/18 21:12:32;;;;;;;12.13;6.55;;;;;;;;;;4319227;80;28543;-76
2022/05/18 21:18:40;;;;;;;15.78;6.58;;;;;;;;;;4302889;80;28506;-79
2022/05/18 21:24:44;;;;;;;14.85;6.35;;;;;;;;;;4318389;81;28557;-79
2022/05/18 21:30:53;;;;;;;15.72;6.90;;;;;;;;;;4316817;80;28534;-79
2022/05/18 21:36:54;;;;;;;17.07;6.50;;;;;;;;;;4329223;80;28470;-81
2022/05/18 21:43:02;;;;;;;16.45;6.50;;;;;;;;;;4332117;80;28449;-80
2022/05/18 21:49:05;;;;;;;15.25;6.72;;;;;;;;;;4335574;80;28512;-80
2022/05/18 21:55:06;;;;;;;13.83;5.92;;;;;;;;;;4339240;80;28514;-80
2022/05/18 22:01:13;;;;;;;11.80;5.90;;;;;;;;;;4339766;80;28472;-80
2022/05/18 22:07:14;;;;;;;11.05;5.55;;;;;;;;;;4332215;80;28499;-78
2022/05/18 22:13:15;;;;;;;13.45;6.35;;;;;;;;;;4334610;80;28537;-79
2022/05/18 22:19:21;;;;;;;14.18;5.60;;;;;;;;;;4333730;80;28538;-78
2022/05/18 22:25:23;;;;;;;12.60;5.83;;;;;;;;;;4320101;80;28524;-78
2022/05/18 22:31:24;;;;;;;11.85;5.45;;;;;;;;;;4326349;80;28509;-78
2022/05/18 22:37:25;;;;;;;12.07;5.50;;;;;;;;;;4324154;80;28517;-77
2022/05/18 22:43:26;;;;;;;9.18;4.85;;;;;;;;;;4324998;80;28541;-77
2022/05/18 22:49:28;;;;;;;9.68;4.42;;;;;;;;;;4330528;80;28533;-78
2022/05/18 22:55:29;;;;;;;9.23;4.33;;;;;;;;;;4325926;80;28522;-78
2022/05/18 23:01:30;;;;;;;10.10;4.47;;;;;;;;;;4329266;80;28451;-77
2022/05/18 23:07:31;;;;;;;11.43;4.80;;;;;;;;;;4341180;80;28532;-78
2022/05/18 23:13:33;;;;;;;11.85;4.28;;;;;;;;;;4335085;80;28559;-77
2022/05/18 23:19:34;;;;;;;10.25;4.22;;;;;;;;;;4318657;80;28553;-78
2022/05/18 23:25:41;;;;;;;9.85;4.58;;;;;;;;;;4335207;80;28567;-78
2022/05/18 23:31:48;;;;;;;8.93;4.35;;;;;;;;;;4328689;80;28558;-77
2022/05/18 23:37:49;;;;;;;8.73;3.85;;;;;;;;;;4338109;80;28580;-77
2022/05/18 23:43:50;;;;;;;8.85;4.35;;;;;;;;;;4305146;80;28514;-77
2022/05/18 23:49:50;;;;;;;9.78;4.12;;;;;;;;;;4299130;80;28560;-78
2022/05/18 23:55:53;;;;;;;9.08;3.60;;;;;;;;;;4320674;80;28534;-79
